Aberdeen, South Dakota
Current Conditions -  °F | °C
As of 7:53 AM on Thursday 18 Dec 2014 (Local Time) from KABR Reporting Station
Overcast Overcast  
Wind Chill: 11°   Ceiling: 1400
Heat Index: 19°   Visibility: 10mi
Dew Point: 13°   Wind: 6mph
Humidity: 77%   Direction: 180°S
Pressure: 30.19"   Gusts: NA
Location:  45.46°N, 98.49°W
Report Text: KABR 181353Z AUTO 18005KT 10SM OVC014 M07/M11 A3019 RMK AO2 SLP249 T10721106
Loading
Personal Weather Stations






























Interactive Weather Map New forecast layout! Learn more

10-Day Weather Forecast

Advertisements
Track Severe Weather on mobile